createdAt,value
2019-02-27T00:01:26.094Z,27.67
2019-02-27T00:03:59.854Z,30.27
2019-02-27T00:06:31.392Z,26.87
2019-02-27T00:09:02.893Z,27.30
2019-02-27T00:11:35.750Z,28.00
2019-02-27T00:14:08.149Z,27.82
2019-02-27T00:16:41.729Z,26.00
2019-02-27T00:19:13.307Z,27.30
2019-02-27T00:21:44.760Z,24.25
2019-02-27T00:24:16.303Z,26.52
2019-02-27T00:26:47.728Z,24.23
2019-02-27T00:29:20.284Z,26.80
2019-02-27T00:31:52.332Z,26.52
2019-02-27T00:34:23.957Z,27.87
2019-02-27T00:36:56.261Z,22.30
2019-02-27T00:39:32.160Z,27.87
2019-02-27T00:42:03.428Z,27.10
2019-02-27T00:44:37.828Z,26.45
2019-02-27T00:47:09.426Z,28.25
2019-02-27T00:49:40.733Z,26.15
2019-02-27T00:52:11.891Z,22.73
2019-02-27T00:54:44.341Z,22.55
2019-02-27T00:57:20.542Z,23.47
2019-02-27T00:59:48.629Z,27.65
2019-02-27T01:02:20.870Z,14.85
2019-02-27T01:04:52.073Z,22.87
2019-02-27T01:07:23.966Z,25.43
2019-02-27T01:09:55.870Z,21.87
2019-02-27T01:12:27.308Z,24.43
2019-02-27T01:14:59.340Z,26.48
2019-02-27T01:17:30.693Z,26.52
2019-02-27T01:20:01.850Z,26.73
2019-02-27T01:22:34.456Z,26.90
2019-02-27T01:25:05.826Z,26.95
2019-02-27T01:27:38.095Z,25.82
2019-02-27T01:30:14.155Z,25.60
2019-02-27T01:32:45.396Z,18.73
2019-02-27T01:35:18.718Z,14.83
2019-02-27T01:37:50.989Z,20.88
2019-02-27T01:40:22.276Z,27.35
2019-02-27T01:42:53.660Z,14.23
2019-02-27T01:45:25.446Z,16.00
2019-02-27T01:47:56.708Z,18.95
2019-02-27T01:50:30.754Z,18.50
2019-02-27T01:53:02.015Z,25.45
2019-02-27T01:55:35.417Z,18.00
2019-02-27T01:58:09.273Z,20.85
2019-02-27T02:00:39.794Z,25.72
2019-02-27T02:03:13.602Z,25.72
2019-02-27T02:05:44.516Z,18.95
2019-02-27T02:08:15.831Z,23.55
2019-02-27T02:10:47.079Z,23.83
2019-02-27T02:13:25.463Z,23.40
2019-02-27T02:16:35.305Z,25.27
2019-02-27T02:19:42.320Z,24.02
2019-02-27T02:23:04.583Z,24.45
2019-02-27T02:25:47.548Z,25.02
2019-02-27T02:28:59.211Z,25.12
2019-02-27T02:32:04.041Z,22.10
2019-02-27T02:34:58.055Z,23.55
2019-02-27T02:38:15.072Z,23.23
2019-02-27T02:41:27.220Z,23.57
2019-02-27T02:44:40.027Z,23.63
2019-02-27T02:47:48.474Z,24.95
2019-02-27T02:50:55.851Z,24.47
2019-02-27T02:54:16.723Z,22.65
2019-02-27T02:57:05.848Z,23.90
2019-02-27T03:00:20.973Z,22.17
2019-02-27T03:03:08.279Z,23.63
2019-02-27T03:06:05.055Z,23.42
2019-02-27T03:08:55.433Z,23.32
2019-02-27T03:11:54.818Z,19.30
2019-02-27T03:14:53.344Z,22.77
2019-02-27T03:18:02.611Z,22.10
2019-02-27T03:21:19.459Z,23.92
2019-02-27T03:24:46.960Z,22.73
2019-02-27T03:27:33.552Z,22.85
2019-02-27T03:30:36.861Z,24.50
2019-02-27T03:33:35.478Z,24.05
2019-02-27T03:36:57.366Z,8.58
2019-02-27T03:40:21.461Z,23.93
2019-02-27T03:43:46.102Z,23.30
2019-02-27T03:46:40.735Z,22.77
2019-02-27T03:49:41.013Z,20.27
2019-02-27T03:53:02.212Z,17.65
2019-02-27T03:56:18.646Z,11.73
2019-02-27T03:59:28.378Z,15.60
2019-02-27T04:02:22.551Z,17.02
2019-02-27T04:05:20.184Z,20.08
2019-02-27T04:08:17.850Z,20.95
2019-02-27T04:10:49.092Z,23.45
2019-02-27T04:13:26.477Z,19.87
2019-02-27T04:15:54.385Z,24.45
2019-02-27T04:18:28.381Z,20.30
2019-02-27T04:20:58.202Z,22.65
2019-02-27T04:23:29.817Z,25.43
2019-02-27T04:26:05.436Z,24.23
2019-02-27T04:28:33.991Z,23.07
2019-02-27T04:31:05.205Z,21.77
2019-02-27T04:33:36.747Z,23.27
2019-02-27T04:36:12.322Z,22.98
2019-02-27T04:38:42.388Z,22.10
2019-02-27T04:41:17.840Z,22.98
2019-02-27T04:43:46.784Z,24.70
2019-02-27T04:46:21.301Z,18.92
2019-02-27T04:48:51.316Z,18.65
2019-02-27T04:51:22.876Z,41.33
2019-02-27T04:53:54.596Z,23.12
2019-02-27T04:56:25.941Z,23.07
2019-02-27T04:58:57.314Z,21.03
2019-02-27T05:01:28.601Z,19.10
2019-02-27T05:04:01.417Z,22.98
2019-02-27T05:06:32.790Z,24.45
2019-02-27T05:09:04.517Z,22.67
2019-02-27T05:11:37.571Z,23.95
2019-02-27T05:14:08.922Z,23.52
2019-02-27T05:16:40.185Z,23.90
2019-02-27T05:19:11.437Z,23.15
2019-02-27T05:21:42.602Z,22.10
2019-02-27T05:24:15.727Z,23.40
2019-02-27T05:26:46.977Z,22.37
2019-02-27T05:29:19.408Z,23.25
2019-02-27T05:31:53.295Z,21.57
2019-02-27T05:34:25.038Z,22.97
2019-02-27T05:36:56.220Z,19.95
2019-02-27T05:39:27.477Z,24.20
2019-02-27T05:42:00.873Z,21.10
2019-02-27T05:44:32.271Z,22.25
2019-02-27T05:47:03.465Z,23.70
2019-02-27T05:49:53.962Z,22.98
2019-02-27T05:52:25.699Z,20.88
2019-02-27T05:54:57.264Z,21.42
2019-02-27T05:57:28.590Z,23.45
2019-02-27T06:00:02.548Z,22.30
2019-02-27T06:02:33.523Z,20.17
2019-02-27T06:05:05.160Z,19.35
2019-02-27T06:07:36.476Z,22.67
2019-02-27T06:10:11.467Z,22.73
2019-02-27T06:12:43.815Z,17.20
2019-02-27T06:15:16.650Z,22.85
2019-02-27T06:17:49.091Z,22.95
2019-02-27T06:20:21.023Z,22.58
2019-02-27T06:22:52.682Z,21.20
2019-02-27T06:25:24.101Z,23.83
2019-02-27T06:27:55.512Z,20.48
2019-02-27T06:30:30.330Z,18.80
2019-02-27T06:33:00.259Z,18.87
2019-02-27T06:35:34.230Z,22.90
2019-02-27T06:38:04.775Z,22.30
2019-02-27T06:40:42.101Z,22.73
2019-02-27T06:43:10.814Z,21.82
2019-02-27T06:45:45.576Z,19.62
2019-02-27T06:48:17.765Z,21.02
2019-02-27T06:50:49.164Z,21.27
2019-02-27T06:53:20.363Z,20.77
2019-02-27T06:55:53.410Z,19.70
2019-02-27T06:58:24.904Z,18.95
2019-02-27T07:00:56.287Z,20.10
2019-02-27T07:03:29.433Z,20.48
2019-02-27T07:08:09.946Z,20.25
2019-02-27T07:10:41.935Z,21.35
2019-02-27T07:13:13.250Z,20.00
2019-02-27T07:15:48.176Z,21.85
2019-02-27T07:18:21.099Z,19.87
2019-02-27T07:20:52.629Z,21.15
2019-02-27T07:23:24.184Z,22.40
2019-02-27T07:25:55.678Z,19.12
2019-02-27T07:28:27.220Z,21.02
2019-02-27T07:30:59.719Z,19.98
2019-02-27T07:33:31.178Z,20.08
2019-02-27T07:36:04.292Z,20.15
2019-02-27T07:38:35.739Z,20.15
2019-02-27T07:41:07.145Z,20.35
2019-02-27T07:43:38.539Z,18.77
2019-02-27T07:46:12.512Z,21.40
2019-02-27T07:48:45.196Z,20.68
2019-02-27T07:51:17.438Z,19.23
2019-02-27T07:53:51.426Z,23.30
2019-02-27T07:56:23.237Z,22.00
2019-02-27T07:58:54.729Z,24.27
2019-02-27T08:01:26.289Z,18.82
2019-02-27T08:03:58.069Z,16.90
2019-02-27T08:06:29.472Z,18.60
2019-02-27T08:09:01.549Z,14.60
2019-02-27T08:11:34.714Z,19.92
2019-02-27T08:14:08.331Z,18.17
2019-02-27T08:16:40.942Z,17.37
2019-02-27T08:19:12.370Z,20.27
2019-02-27T08:21:45.641Z,19.35
2019-02-27T08:24:33.799Z,21.27
2019-02-27T08:27:13.759Z,15.50
2019-02-27T08:30:24.852Z,18.67
2019-02-27T08:32:58.250Z,20.95
2019-02-27T08:35:33.109Z,20.82
2019-02-27T08:38:08.790Z,20.92
2019-02-27T08:40:40.414Z,21.12
2019-02-27T08:43:13.014Z,20.60
2019-02-27T08:46:26.193Z,19.42
2019-02-27T08:48:57.720Z,20.75
2019-02-27T08:54:21.736Z,17.07
2019-02-27T08:56:53.938Z,20.40
2019-02-27T08:59:27.468Z,21.70
2019-02-27T09:01:59.194Z,21.37
2019-02-27T09:04:30.502Z,23.05
2019-02-27T09:07:02.734Z,22.22
2019-02-27T09:09:36.344Z,22.27
2019-02-27T09:12:13.410Z,21.45
2019-02-27T09:14:44.584Z,20.48
2019-02-27T09:17:16.798Z,18.73
2019-02-27T09:19:48.391Z,21.23
2019-02-27T09:22:19.672Z,20.65
2019-02-27T09:24:51.071Z,20.68
2019-02-27T09:27:24.148Z,20.77
2019-02-27T09:29:55.437Z,19.55
2019-02-27T09:32:28.338Z,19.30
2019-02-27T09:35:12.052Z,16.10
2019-02-27T09:37:44.876Z,17.80
2019-02-27T09:40:20.708Z,18.27
2019-02-27T09:42:53.903Z,14.18
2019-02-27T09:45:34.603Z,13.72
2019-02-27T09:48:09.406Z,15.43
2019-02-27T09:50:47.724Z,16.48
2019-02-27T09:53:18.859Z,16.60
2019-02-27T09:56:11.591Z,18.73
2019-02-27T09:58:51.345Z,16.00
2019-02-27T10:01:29.266Z,18.32
2019-02-27T10:04:09.686Z,17.52
2019-02-27T10:06:45.560Z,18.00
2019-02-27T10:09:19.470Z,18.02
2019-02-27T10:11:53.184Z,16.93
2019-02-27T10:14:24.812Z,15.68
2019-02-27T10:16:56.813Z,13.32
2019-02-27T10:19:28.824Z,7.12
2019-02-27T10:22:01.367Z,12.13
2019-02-27T10:24:38.061Z,14.10
2019-02-27T10:30:11.465Z,12.03
2019-02-27T10:32:42.219Z,15.23
2019-02-27T10:35:15.385Z,12.98
2019-02-27T10:37:50.475Z,14.93
2019-02-27T10:40:20.934Z,10.18
2019-02-27T10:42:52.877Z,16.85
2019-02-27T10:45:24.575Z,15.15
2019-02-27T10:47:57.469Z,15.63
2019-02-27T10:50:29.746Z,16.27
2019-02-27T10:53:01.885Z,15.60
2019-02-27T10:55:37.203Z,12.37
2019-02-27T11:01:28.093Z,13.95
2019-02-27T11:04:00.567Z,15.03
2019-02-27T11:06:37.766Z,12.63
2019-02-27T11:09:23.824Z,11.53
2019-02-27T11:11:55.583Z,16.15
2019-02-27T11:14:31.630Z,16.25
2019-02-27T11:17:02.570Z,13.32
2019-02-27T11:19:34.904Z,9.08
2019-02-27T11:22:07.257Z,16.52
2019-02-27T11:24:38.768Z,9.88
2019-02-27T11:27:10.241Z,15.35
2019-02-27T11:29:43.169Z,22.22
2019-02-27T11:32:14.682Z,16.55
2019-02-27T11:34:48.468Z,17.40
2019-02-27T11:37:19.948Z,16.05
2019-02-27T11:39:51.418Z,14.20
2019-02-27T11:42:24.180Z,18.30
2019-02-27T11:44:56.974Z,16.50
2019-02-27T11:47:28.507Z,16.23
2019-02-27T11:49:59.957Z,19.85
2019-02-27T11:52:31.833Z,21.12
2019-02-27T11:55:03.298Z,19.17
2019-02-27T11:57:34.764Z,15.70
2019-02-27T12:00:06.989Z,15.78
2019-02-27T12:02:41.375Z,18.20
2019-02-27T12:05:14.967Z,19.87
2019-02-27T12:07:50.799Z,17.67
2019-02-27T12:10:24.636Z,22.98
2019-02-27T12:13:00.739Z,21.00
2019-02-27T12:15:33.252Z,23.07
2019-02-27T12:18:04.703Z,21.65
2019-02-27T12:20:36.142Z,23.83
2019-02-27T12:23:10.130Z,21.42
2019-02-27T12:25:45.011Z,17.90
2019-02-27T12:28:19.948Z,22.80
2019-02-27T12:30:51.949Z,19.27
2019-02-27T12:33:23.461Z,15.55
2019-02-27T12:35:55.461Z,14.80
2019-02-27T12:38:27.657Z,9.28
2019-02-27T12:40:59.119Z,22.95
2019-02-27T12:43:32.653Z,16.85
2019-02-27T12:46:04.425Z,22.90
2019-02-27T12:48:36.287Z,10.60
2019-02-27T12:51:08.074Z,19.35
2019-02-27T12:53:39.469Z,20.45
2019-02-27T12:56:33.257Z,21.15
2019-02-27T12:59:05.149Z,16.73
2019-02-27T13:01:36.888Z,19.12
2019-02-27T13:04:08.542Z,20.88
2019-02-27T13:06:40.108Z,20.43
2019-02-27T13:09:11.735Z,21.52
2019-02-27T13:11:44.982Z,21.02
2019-02-27T13:14:16.971Z,15.10
2019-02-27T13:16:49.524Z,18.32
2019-02-27T13:19:21.982Z,20.80
2019-02-27T13:21:55.025Z,18.23
2019-02-27T13:24:26.822Z,18.15
2019-02-27T13:26:58.184Z,16.57
2019-02-27T13:29:29.624Z,17.90
2019-02-27T13:32:01.682Z,20.55
2019-02-27T13:34:33.025Z,17.40
2019-02-27T13:37:06.943Z,14.33
2019-02-27T13:39:38.218Z,14.75
2019-02-27T13:42:09.597Z,16.97
2019-02-27T13:44:40.847Z,15.98
2019-02-27T13:47:12.496Z,13.78
2019-02-27T13:49:45.027Z,11.60
2019-02-27T13:52:17.436Z,13.18
2019-02-27T13:54:50.191Z,19.85
2019-02-27T13:57:25.052Z,20.02
2019-02-27T13:59:56.826Z,12.95
2019-02-27T14:02:28.537Z,18.40
2019-02-27T14:05:06.516Z,16.77
2019-02-27T14:07:37.891Z,15.78
2019-02-27T14:10:09.930Z,18.57
2019-02-27T14:12:41.666Z,18.45
2019-02-27T14:15:15.018Z,17.25
2019-02-27T14:17:46.519Z,14.70
2019-02-27T14:20:18.849Z,13.80
2019-02-27T14:22:50.600Z,14.35
2019-02-27T14:25:28.508Z,17.17
2019-02-27T14:27:58.686Z,18.12
2019-02-27T14:30:35.718Z,13.58
2019-02-27T14:33:06.700Z,12.75
2019-02-27T14:35:38.123Z,16.12
2019-02-27T14:38:09.362Z,9.13
2019-02-27T14:40:41.542Z,10.35
2019-02-27T14:43:12.883Z,9.70
2019-02-27T14:45:44.914Z,14.47
2019-02-27T14:48:18.172Z,14.55
2019-02-27T14:50:49.718Z,15.15
2019-02-27T14:53:21.187Z,11.88
2019-02-27T14:55:52.628Z,10.18
2019-02-27T14:58:26.997Z,14.78
2019-02-27T15:00:58.630Z,13.80
2019-02-27T15:03:30.193Z,14.47
2019-02-27T15:06:01.507Z,17.10
2019-02-27T15:08:33.404Z,14.45
2019-02-27T15:11:05.001Z,15.15
2019-02-27T15:13:36.573Z,15.93
2019-02-27T15:16:08.030Z,15.32
2019-02-27T15:18:39.445Z,16.10
2019-02-27T15:21:13.247Z,17.80
2019-02-27T15:23:44.053Z,17.23
2019-02-27T15:26:16.436Z,18.15
2019-02-27T15:28:48.810Z,18.50
2019-02-27T15:31:21.432Z,18.77
2019-02-27T15:33:54.005Z,20.05
2019-02-27T15:36:31.036Z,19.75
2019-02-27T15:39:02.910Z,18.92
2019-02-27T15:41:36.048Z,22.22
2019-02-27T15:44:07.685Z,20.80
2019-02-27T15:46:39.331Z,21.37
2019-02-27T15:49:12.825Z,21.07
2019-02-27T15:51:44.221Z,21.87
2019-02-27T15:54:15.598Z,20.90
2019-02-27T15:56:47.189Z,21.25
2019-02-27T15:59:18.554Z,21.07
2019-02-27T16:01:50.742Z,23.40
2019-02-27T16:04:22.234Z,21.20
2019-02-27T16:06:53.617Z,24.27
2019-02-27T16:09:25.217Z,22.93
2019-02-27T16:11:56.585Z,22.70
2019-02-27T16:14:30.019Z,21.50
2019-02-27T16:17:01.192Z,22.10
2019-02-27T16:19:32.650Z,24.95
2019-02-27T16:22:04.006Z,22.82
2019-02-27T16:24:35.963Z,24.82
2019-02-27T16:27:08.909Z,22.75
2019-02-27T16:29:40.820Z,21.50
2019-02-27T16:32:13.382Z,21.45
2019-02-27T16:34:47.496Z,21.97
2019-02-27T16:37:22.810Z,21.95
2019-02-27T16:39:55.407Z,21.68
2019-02-27T16:42:26.658Z,23.00
2019-02-27T16:44:58.146Z,22.13
2019-02-27T16:47:30.144Z,23.65
2019-02-27T16:50:03.138Z,23.45
2019-02-27T16:52:39.183Z,22.93
2019-02-27T16:55:13.347Z,22.77
2019-02-27T16:57:44.956Z,20.82
2019-02-27T17:00:21.895Z,23.52
2019-02-27T17:02:54.438Z,22.67
2019-02-27T17:05:26.408Z,23.70
2019-02-27T17:08:02.083Z,22.95
2019-02-27T17:10:32.575Z,20.75
2019-02-27T17:13:05.055Z,22.40
2019-02-27T17:15:36.914Z,17.82
2019-02-27T17:18:08.314Z,20.80
2019-02-27T17:20:46.066Z,21.33
2019-02-27T17:23:14.567Z,27.65
2019-02-27T17:25:45.941Z,20.62
2019-02-27T17:28:17.322Z,18.70
2019-02-27T17:30:49.266Z,20.92
2019-02-27T17:33:23.013Z,19.10
2019-02-27T17:35:58.537Z,21.75
2019-02-27T17:38:28.866Z,21.55
2019-02-27T17:41:00.610Z,22.10
2019-02-27T17:43:33.035Z,19.07
2019-02-27T17:46:08.025Z,21.73
2019-02-27T17:48:39.449Z,20.75
2019-02-27T17:51:10.747Z,21.97
2019-02-27T17:53:42.247Z,22.27
2019-02-27T17:56:16.270Z,23.90
2019-02-27T17:58:47.942Z,23.45
2019-02-27T18:01:25.141Z,22.77
2019-02-27T18:03:55.603Z,23.95
2019-02-27T18:06:27.229Z,23.73
2019-02-27T18:08:58.952Z,21.82
2019-02-27T18:11:30.448Z,25.40
2019-02-27T18:14:01.946Z,27.02
2019-02-27T18:16:36.085Z,25.27
2019-02-27T18:19:07.613Z,25.00
2019-02-27T18:21:39.107Z,24.15
2019-02-27T18:24:11.653Z,25.55
2019-02-27T18:26:50.068Z,26.10
2019-02-27T18:29:19.095Z,27.05
2019-02-27T18:31:53.595Z,28.07
2019-02-27T18:34:25.565Z,27.60
2019-02-27T18:36:57.020Z,27.95
2019-02-27T18:39:28.555Z,26.52
2019-02-27T18:42:03.415Z,27.85
2019-02-27T18:44:38.279Z,27.55
2019-02-27T18:47:10.051Z,27.52
2019-02-27T18:49:42.447Z,27.65
2019-02-27T18:52:21.168Z,25.92
2019-02-27T18:54:49.192Z,27.65
2019-02-27T18:57:21.968Z,28.17
2019-02-27T18:59:53.525Z,27.17
2019-02-27T19:02:24.762Z,27.87
2019-02-27T19:04:56.254Z,23.62
2019-02-27T19:07:27.447Z,26.62
2019-02-27T19:09:59.203Z,26.42
2019-02-27T19:12:31.334Z,26.55
2019-02-27T19:15:03.368Z,26.35
2019-02-27T19:17:36.928Z,27.73
2019-02-27T19:20:18.112Z,27.42
2019-02-27T19:22:50.624Z,27.17
2019-02-27T19:25:22.099Z,26.97
2019-02-27T19:27:54.459Z,26.48
2019-02-27T19:30:26.629Z,27.05
2019-02-27T19:33:01.730Z,25.15
2019-02-27T19:35:31.340Z,25.97
2019-02-27T19:38:05.867Z,27.60
2019-02-27T19:40:37.435Z,28.55
2019-02-27T19:43:09.265Z,25.23
2019-02-27T19:45:42.242Z,25.50
2019-02-27T19:48:14.086Z,27.42
2019-02-27T19:50:46.417Z,26.10
2019-02-27T19:53:19.240Z,26.23
2019-02-27T19:55:50.953Z,24.37
2019-02-27T19:58:28.270Z,23.85
2019-02-27T20:01:00.689Z,24.95
2019-02-27T20:03:35.468Z,23.92
2019-02-27T20:06:08.562Z,23.55
2019-02-27T20:08:44.360Z,23.92
2019-02-27T20:11:17.698Z,23.98
2019-02-27T20:13:54.746Z,24.35
2019-02-27T20:16:36.199Z,23.38
2019-02-27T20:19:22.351Z,24.02
2019-02-27T20:22:15.476Z,25.25
2019-02-27T20:24:49.265Z,24.37
2019-02-27T20:27:25.875Z,24.07
2019-02-27T20:30:15.432Z,23.15
2019-02-27T20:32:53.869Z,23.62
2019-02-27T20:35:42.853Z,24.52
2019-02-27T20:38:15.990Z,24.57
2019-02-27T20:40:48.514Z,24.15
2019-02-27T20:43:21.386Z,23.32
2019-02-27T20:45:54.594Z,24.23
2019-02-27T20:48:39.538Z,22.82
2019-02-27T20:54:04.593Z,22.90
2019-02-27T20:56:36.845Z,24.07
2019-02-27T21:02:02.172Z,23.10
2019-02-27T21:04:39.251Z,23.05
2019-02-27T21:07:31.206Z,17.42
2019-02-27T21:10:05.164Z,19.67
2019-02-27T21:12:40.752Z,18.55
2019-02-27T21:15:22.509Z,23.30
2019-02-27T21:18:06.769Z,26.68
2019-02-27T21:20:42.171Z,25.70
2019-02-27T21:23:24.803Z,21.10
2019-02-27T21:26:12.101Z,26.52
2019-02-27T21:31:58.234Z,27.45
2019-02-27T21:34:42.402Z,23.42
2019-02-27T21:37:16.262Z,22.85
2019-02-27T21:39:57.126Z,27.10
2019-02-27T21:42:40.993Z,28.32
2019-02-27T21:45:31.239Z,14.55
2019-02-27T21:48:26.680Z,27.60
2019-02-27T21:51:47.669Z,29.00
2019-02-27T21:54:51.652Z,28.52
2019-02-27T22:03:18.157Z,30.15
2019-02-27T22:05:52.972Z,25.08
2019-02-27T22:08:25.341Z,31.02
2019-02-27T22:11:05.701Z,28.90
2019-02-27T22:13:46.403Z,30.97
2019-02-27T22:16:21.167Z,28.95
2019-02-27T22:18:54.302Z,25.48
2019-02-27T22:21:27.267Z,18.40
2019-02-27T22:24:00.173Z,21.57
2019-02-27T22:26:38.437Z,30.75
2019-02-27T22:29:30.212Z,32.73
2019-02-27T22:32:07.835Z,31.07
2019-02-27T22:34:41.240Z,31.82
2019-02-27T22:37:18.453Z,27.20
2019-02-27T22:39:49.622Z,20.75
2019-02-27T22:42:24.696Z,27.45
2019-02-27T22:45:00.643Z,29.05
2019-02-27T22:47:37.183Z,32.85
2019-02-27T22:50:10.521Z,22.65
2019-02-27T22:52:42.881Z,20.72
2019-02-27T22:55:15.560Z,34.38
2019-02-27T22:57:50.045Z,13.70
2019-02-27T23:01:02.579Z,20.30
2019-02-27T23:03:46.801Z,32.53
2019-02-27T23:06:19.519Z,13.78
2019-02-27T23:08:54.460Z,31.77
2019-02-27T23:11:29.267Z,19.52
2019-02-27T23:14:03.175Z,29.07
2019-02-27T23:16:37.007Z,25.75
2019-02-27T23:19:51.977Z,35.50
2019-02-27T23:22:50.535Z,20.48
2019-02-27T23:25:23.747Z,18.98
2019-02-27T23:28:03.004Z,23.83
2019-02-27T23:33:35.842Z,19.55
2019-02-27T23:36:05.808Z,23.80
2019-02-27T23:38:44.597Z,40.08
2019-02-27T23:41:22.923Z,23.45
2019-02-27T23:43:52.416Z,21.62
2019-02-27T23:59:17.548Z,42.25
